Centerbrook, Connecticut
Current Conditions -  °F | °C
As of 3:35 AM on Friday 28 Nov 2014 (Local Time) from KSNC Reporting Station
Overcast Overcast  
Wind Chill: -3°   Ceiling: 4800
Heat Index:   Visibility: 10mi
Dew Point: -2°   Wind: 6mph
Humidity: 87%   Direction: 320°NW
Pressure: 30.02"   Gusts: NA
Location:  41.35°N, 72.42°W
Report Text: KSNC 280835Z AUTO 32005KT 10SM SCT018 OVC048 00/M02 A3002 RMK AO2
Loading
Personal Weather Stations






























Interactive Weather Map New forecast layout! Learn more

10-Day Weather Forecast

Advertisements
Track Severe Weather on mobile